Airfield :
LOGIN :

Register | Disclaimer

   EN    FR    IT 

 










Legend :    VFR   Marginal VFR   IFR   Intensive IFR   Very Intensive IFR
Visi :
Ceiling :
>= 8 km
>= 3000ft
5 to 8 km
1000 to 3000 ft
1500m to 5 km
500 to 1000 ft
800 to 1500m
200 to 500 ft
< 800m
< 200 ft
Symbols :   Thunderstorms  Fog  Heavy snow  Heavy precipitations  Wind > 20 kt
SIGMETs :     Misc.  Thunderstorms  Icing  Turbulence  Mountain Waves  Volcanic Ashes







- Airport Elevation : 465 ft


ENFB - Statfjord B Platform

CURRENT METAR :
  • 251420Z AUTO 15025KT 9999NDV BKN058/// 13/08 Q1008 W///S3

EXPIRED METARs :
  • 251350Z AUTO 15027KT 9999NDV SCT055/// 13/07 Q1008 W///S3
  • 251320Z AUTO 15026KT 9999NDV FEW097/// 13/07 Q1008 W///S3
  • 251250Z AUTO 15026KT 9999NDV SCT051/// SCT096/// BKN140/// 14/07 Q1008 W///S3
  • 251220Z AUTO 14029KT 9999NDV OVC049/// 13/06 Q1008 W///S3
  • 251150Z AUTO 13030KT 9999NDV BKN047/// 13/07 Q1007 W///S4

TAF N/A
No reported NOTAMs for that airfield.
1 SIGMET reported for the Norway FIR (ENOR) :
 
Severe mountain waves
ENSV SIGMET B03 VALID 251300/251700 ENVV
ENOR NORWAY FIR SEV MTW FCST WI N5850 E00730 - N5845 E00550 - N6015 E00535 - N6040 E00730 - N5850 E00730 SFC/FL080 STNR WKN=



MET'MAP, your aeronautical weather chart ! - Copyright ORBIFLY December 2007 - Disclaimer

ORBIFLY MET'MAP TEAM :

Programming & Development : Alexandra Zaïnal
Concept & Development : Baudouin d'Aumeries
Co-Development & Prog : Marc-Olivier Méhu
Technical & hardware support : Manuel Goepfert

Contact : metmap@orbifly.com




SOURCES & CREDITS :

   NOAA